sensor_id;sensor_type;location;lat;lon;timestamp;pressure;altitude;pressure_sealevel;temperature;humidity
3832;BME280;12460;42.662;23.288;2023-08-17T00:13:34;94630.50;;;22.40;60.27
3832;BME280;12460;42.662;23.288;2023-08-17T00:28:37;94628.56;;;22.13;61.56
3832;BME280;12460;42.662;23.288;2023-08-17T00:43:39;94620.75;;;21.98;61.22
3832;BME280;12460;42.662;23.288;2023-08-17T00:58:42;94609.47;;;21.87;58.66
3832;BME280;12460;42.662;23.288;2023-08-17T01:28:49;94599.47;;;21.88;53.35
3832;BME280;12460;42.662;23.288;2023-08-17T01:43:51;94599.28;;;21.99;52.45
3832;BME280;12460;42.662;23.288;2023-08-17T01:58:56;94598.06;;;21.73;52.84
3832;BME280;12460;42.662;23.288;2023-08-17T02:13:57;94604.16;;;21.66;53.42
3832;BME280;12460;42.662;23.288;2023-08-17T02:28:59;94590.44;;;21.33;55.41
3832;BME280;12460;42.662;23.288;2023-08-17T02:44:03;94600.16;;;21.12;56.28
3832;BME280;12460;42.662;23.288;2023-08-17T02:59:05;94592.06;;;21.07;56.60
3832;BME280;12460;42.662;23.288;2023-08-17T03:14:07;94590.56;;;20.92;56.99
3832;BME280;12460;42.662;23.288;2023-08-17T03:29:09;94595.50;;;20.76;57.12
3832;BME280;12460;42.662;23.288;2023-08-17T03:44:11;94600.50;;;21.05;56.06
3832;BME280;12460;42.662;23.288;2023-08-17T03:59:15;94604.94;;;23.83;49.03
3832;BME280;12460;42.662;23.288;2023-08-17T04:14:17;94617.66;;;28.54;38.64
3832;BME280;12460;42.662;23.288;2023-08-17T04:29:22;94609.78;;;32.29;32.51
3832;BME280;12460;42.662;23.288;2023-08-17T04:44:24;94595.63;;;34.67;29.19
3832;BME280;12460;42.662;23.288;2023-08-17T04:59:26;94603.31;;;36.38;27.56
3832;BME280;12460;42.662;23.288;2023-08-17T05:14:28;94604.22;;;37.47;27.09
3832;BME280;12460;42.662;23.288;2023-08-17T05:29:30;94608.81;;;37.87;26.51
3832;BME280;12460;42.662;23.288;2023-08-17T05:44:34;94604.47;;;38.26;26.08
3832;BME280;12460;42.662;23.288;2023-08-17T05:59:36;94608.00;;;37.92;25.30
3832;BME280;12460;42.662;23.288;2023-08-17T06:14:38;94617.59;;;34.52;29.04
3832;BME280;12460;42.662;23.288;2023-08-17T06:29:40;94619.09;;;33.77;30.62
3832;BME280;12460;42.662;23.288;2023-08-17T06:44:41;94630.53;;;31.80;33.60
3832;BME280;12460;42.662;23.288;2023-08-17T06:59:43;94618.41;;;31.31;34.42
3832;BME280;12460;42.662;23.288;2023-08-17T07:14:47;94615.41;;;31.97;33.17
3832;BME280;12460;42.662;23.288;2023-08-17T07:29:49;94606.53;;;31.07;30.93
3832;BME280;12460;42.662;23.288;2023-08-17T07:44:51;94597.19;;;31.17;30.79
3832;BME280;12460;42.662;23.288;2023-08-17T07:59:53;94595.31;;;31.45;32.00
3832;BME280;12460;42.662;23.288;2023-08-17T08:14:55;94584.69;;;31.04;33.35
3832;BME280;12460;42.662;23.288;2023-08-17T08:29:57;94604.53;;;32.04;31.74
3832;BME280;12460;42.662;23.288;2023-08-17T08:44:59;94581.72;;;33.00;31.14
3832;BME280;12460;42.662;23.288;2023-08-17T09:00:01;94579.34;;;32.53;31.95
3832;BME280;12460;42.662;23.288;2023-08-17T09:15:04;94547.56;;;33.63;30.88
3832;BME280;12460;42.662;23.288;2023-08-17T09:30:10;94535.91;;;33.59;30.65
3832;BME280;12460;42.662;23.288;2023-08-17T09:45:12;94517.66;;;33.51;30.50
3832;BME280;12460;42.662;23.288;2023-08-17T10:00:14;94502.28;;;34.05;29.08
3832;BME280;12460;42.662;23.288;2023-08-17T10:15:18;94495.75;;;33.70;28.13
3832;BME280;12460;42.662;23.288;2023-08-17T10:30:21;94492.00;;;34.24;27.19
3832;BME280;12460;42.662;23.288;2023-08-17T10:45:28;94489.75;;;34.42;26.99
3832;BME280;12460;42.662;23.288;2023-08-17T11:00:34;94464.25;;;34.27;27.17
3832;BME280;12460;42.662;23.288;2023-08-17T11:15:41;94470.00;;;34.45;26.29
3832;BME280;12460;42.662;23.288;2023-08-17T11:30:59;94450.28;;;35.59;25.06
3832;BME280;12460;42.662;23.288;2023-08-17T11:46:01;94427.72;;;34.32;28.22
3832;BME280;12460;42.662;23.288;2023-08-17T12:01:09;94426.16;;;34.47;28.92
3832;BME280;12460;42.662;23.288;2023-08-17T12:16:15;94426.59;;;34.98;27.79
3832;BME280;12460;42.662;23.288;2023-08-17T12:31:21;94408.50;;;34.73;28.20
3832;BME280;12460;42.662;23.288;2023-08-17T12:46:24;94416.94;;;33.70;30.25
3832;BME280;12460;42.662;23.288;2023-08-17T13:01:26;94416.97;;;32.93;34.01
3832;BME280;12460;42.662;23.288;2023-08-17T13:16:28;94420.66;;;33.08;33.89
3832;BME280;12460;42.662;23.288;2023-08-17T13:31:30;94414.09;;;33.32;33.90
3832;BME280;12460;42.662;23.288;2023-08-17T13:46:33;94429.19;;;32.13;35.62
3832;BME280;12460;42.662;23.288;2023-08-17T14:01:35;94418.84;;;31.82;35.74
3832;BME280;12460;42.662;23.288;2023-08-17T14:16:36;94430.44;;;31.80;35.86
3832;BME280;12460;42.662;23.288;2023-08-17T14:31:38;94427.50;;;31.70;35.88
3832;BME280;12460;42.662;23.288;2023-08-17T14:46:40;94451.06;;;31.08;36.62
3832;BME280;12460;42.662;23.288;2023-08-17T15:01:44;94426.66;;;31.49;35.34
3832;BME280;12460;42.662;23.288;2023-08-17T15:16:46;94419.69;;;32.01;34.53
3832;BME280;12460;42.662;23.288;2023-08-17T15:31:48;94417.22;;;31.57;34.86
3832;BME280;12460;42.662;23.288;2023-08-17T15:46:50;94421.91;;;31.00;36.52
3832;BME280;12460;42.662;23.288;2023-08-17T16:01:55;94417.31;;;30.75;37.32
3832;BME280;12460;42.662;23.288;2023-08-17T16:16:56;94432.47;;;30.63;37.48
3832;BME280;12460;42.662;23.288;2023-08-17T16:32:00;94431.94;;;30.17;38.57
3832;BME280;12460;42.662;23.288;2023-08-17T16:47:09;94450.31;;;29.78;39.50
3832;BME280;12460;42.662;23.288;2023-08-17T17:02:11;94457.91;;;29.51;39.56
3832;BME280;12460;42.662;23.288;2023-08-17T17:17:15;94473.78;;;29.02;40.73
3832;BME280;12460;42.662;23.288;2023-08-17T17:32:17;94481.25;;;28.73;41.53
3832;BME280;12460;42.662;23.288;2023-08-17T17:47:19;94485.56;;;28.34;41.95
3832;BME280;12460;42.662;23.288;2023-08-17T18:02:24;94505.78;;;28.32;42.88
3832;BME280;12460;42.662;23.288;2023-08-17T18:17:26;94512.59;;;28.11;43.25
3832;BME280;12460;42.662;23.288;2023-08-17T18:32:28;94532.66;;;27.72;44.28
3832;BME280;12460;42.662;23.288;2023-08-17T18:47:30;94536.22;;;27.68;43.98
3832;BME280;12460;42.662;23.288;2023-08-17T19:02:32;94544.41;;;27.48;44.54
3832;BME280;12460;42.662;23.288;2023-08-17T19:17:34;94529.88;;;27.16;45.59
3832;BME280;12460;42.662;23.288;2023-08-17T19:32:40;94543.78;;;26.94;46.48
3832;BME280;12460;42.662;23.288;2023-08-17T19:47:42;94548.88;;;26.70;46.93
3832;BME280;12460;42.662;23.288;2023-08-17T20:02:44;94553.72;;;26.61;47.25
3832;BME280;12460;42.662;23.288;2023-08-17T20:17:47;94549.09;;;26.50;47.16
3832;BME280;12460;42.662;23.288;2023-08-17T20:32:49;94547.50;;;26.45;47.07
3832;BME280;12460;42.662;23.288;2023-08-17T20:47:52;94556.09;;;26.43;46.80
3832;BME280;12460;42.662;23.288;2023-08-17T21:02:55;94549.44;;;26.64;46.05
3832;BME280;12460;42.662;23.288;2023-08-17T21:17:57;94564.09;;;26.72;45.75
3832;BME280;12460;42.662;23.288;2023-08-17T21:32:59;94553.06;;;26.65;44.94
3832;BME280;12460;42.662;23.288;2023-08-17T21:48:01;94560.72;;;26.54;45.01
3832;BME280;12460;42.662;23.288;2023-08-17T22:03:03;94550.66;;;26.29;45.56
3832;BME280;12460;42.662;23.288;2023-08-17T22:18:06;94560.44;;;25.95;45.82
3832;BME280;12460;42.662;23.288;2023-08-17T22:33:08;94586.41;;;25.49;47.71
3832;BME280;12460;42.662;23.288;2023-08-17T22:48:10;94601.53;;;25.28;46.86
3832;BME280;12460;42.662;23.288;2023-08-17T23:03:12;94598.19;;;25.14;47.09
3832;BME280;12460;42.662;23.288;2023-08-17T23:18:14;94595.78;;;25.07;46.64
3832;BME280;12460;42.662;23.288;2023-08-17T23:33:16;94590.09;;;25.09;45.92
3832;BME280;12460;42.662;23.288;2023-08-17T23:48:17;94585.47;;;25.00;46.01
